createdAt,value
2023-11-18T00:01:43.204Z,54.85
2023-11-18T00:04:16.960Z,54.80
2023-11-18T00:06:47.271Z,48.42
2023-11-18T00:09:14.447Z,51.83
2023-11-18T00:11:41.539Z,54.05
2023-11-18T00:14:08.435Z,51.65
2023-11-18T00:16:35.656Z,51.75
2023-11-18T00:19:02.657Z,56.35
2023-11-18T00:21:29.146Z,52.28
2023-11-18T00:23:57.076Z,45.05
2023-11-18T00:26:23.681Z,51.60
2023-11-18T00:28:50.466Z,52.38
2023-11-18T00:31:17.046Z,54.22
2023-11-18T00:33:44.279Z,48.97
2023-11-18T00:36:10.831Z,46.22
2023-11-18T00:38:37.319Z,47.72
2023-11-18T00:41:04.153Z,45.47
2023-11-18T00:43:30.759Z,51.05
2023-11-18T00:45:59.101Z,48.47
2023-11-18T00:48:25.657Z,43.25
2023-11-18T00:50:53.022Z,47.55
2023-11-18T00:53:20.004Z,45.60
2023-11-18T00:55:46.702Z,46.50
2023-11-18T00:58:13.414Z,46.92
2023-11-18T01:00:39.992Z,48.97
2023-11-18T01:03:06.525Z,43.05
2023-11-18T01:05:32.994Z,42.72
2023-11-18T01:07:59.515Z,36.75
2023-11-18T01:10:26.064Z,43.72
2023-11-18T01:12:52.564Z,40.88
2023-11-18T01:15:19.057Z,43.67
2023-11-18T01:17:45.731Z,46.45
2023-11-18T01:20:13.245Z,39.80
2023-11-18T01:22:40.505Z,39.20
2023-11-18T01:25:07.668Z,43.70
2023-11-18T01:27:37.016Z,40.50
2023-11-18T01:30:05.848Z,42.15
2023-11-18T01:32:32.875Z,40.03
2023-11-18T01:34:59.899Z,35.90
2023-11-18T01:37:26.551Z,38.58
2023-11-18T01:39:53.126Z,42.85
2023-11-18T01:42:19.622Z,41.90
2023-11-18T01:44:46.140Z,44.35
2023-11-18T01:47:13.709Z,41.70
2023-11-18T01:49:42.011Z,39.33
2023-11-18T01:52:09.010Z,36.20
2023-11-18T01:54:38.858Z,40.97
2023-11-18T01:57:07.237Z,35.25
2023-11-18T01:59:34.847Z,41.42
2023-11-18T02:02:03.166Z,43.25
2023-11-18T02:04:30.816Z,39.88
2023-11-18T02:06:58.245Z,39.53
2023-11-18T02:09:31.581Z,41.60
2023-11-18T02:12:17.525Z,41.60
2023-11-18T02:14:44.522Z,40.28
2023-11-18T02:17:12.143Z,41.65
2023-11-18T02:19:40.330Z,36.35
2023-11-18T02:22:12.261Z,40.47
2023-11-18T02:24:38.880Z,41.75
2023-11-18T02:27:12.555Z,41.63
2023-11-18T02:29:44.202Z,38.17
2023-11-18T02:32:25.218Z,36.88
2023-11-18T02:35:01.992Z,38.00
2023-11-18T02:37:28.721Z,36.80
2023-11-18T02:40:04.969Z,36.88
2023-11-18T02:42:31.689Z,37.70
2023-11-18T02:45:00.592Z,33.25
2023-11-18T02:47:28.122Z,35.75
2023-11-18T02:49:55.841Z,36.35
2023-11-18T02:52:22.389Z,34.72
2023-11-18T02:54:48.819Z,39.30
2023-11-18T02:57:15.305Z,38.78
2023-11-18T02:59:41.742Z,34.55
2023-11-18T03:02:08.345Z,39.15
2023-11-18T03:04:35.100Z,35.92
2023-11-18T03:07:01.843Z,39.35
2023-11-18T03:09:28.881Z,37.03
2023-11-18T03:11:56.063Z,39.92
2023-11-18T03:14:22.953Z,33.05
2023-11-18T03:16:49.481Z,41.70
2023-11-18T03:19:15.971Z,38.03
2023-11-18T03:21:42.468Z,36.65
2023-11-18T03:24:10.374Z,39.25
2023-11-18T03:26:36.850Z,37.10
2023-11-18T03:29:03.441Z,38.13
2023-11-18T03:31:30.226Z,38.13
2023-11-18T03:33:57.206Z,39.63
2023-11-18T03:36:23.702Z,34.30
2023-11-18T03:38:50.497Z,38.70
2023-11-18T03:41:16.941Z,34.38
2023-11-18T03:43:43.492Z,33.38
2023-11-18T03:46:11.871Z,36.35
2023-11-18T03:48:38.486Z,32.30
2023-11-18T03:51:05.391Z,32.75
2023-11-18T03:53:31.850Z,31.85
2023-11-18T03:55:58.723Z,36.28
2023-11-18T03:58:25.236Z,34.83
2023-11-18T04:00:51.845Z,35.95
2023-11-18T04:03:18.396Z,34.17
2023-11-18T04:05:45.282Z,32.47
2023-11-18T04:08:12.814Z,30.73
2023-11-18T04:10:39.354Z,32.92
2023-11-18T04:13:05.833Z,32.95
2023-11-18T04:15:32.677Z,35.88
2023-11-18T04:17:59.573Z,33.63
2023-11-18T04:20:26.031Z,32.42
2023-11-18T04:22:52.565Z,30.58
2023-11-18T04:25:19.071Z,36.50
2023-11-18T04:27:47.182Z,36.42
2023-11-18T04:30:14.362Z,32.80
2023-11-18T04:32:43.704Z,33.15
2023-11-18T04:35:11.174Z,32.55
2023-11-18T04:37:37.891Z,32.05
2023-11-18T04:40:05.069Z,35.30
2023-11-18T04:42:31.581Z,33.88
2023-11-18T04:44:58.755Z,34.35
2023-11-18T04:47:26.488Z,34.72
2023-11-18T04:49:53.401Z,31.52
2023-11-18T04:52:20.034Z,30.52
2023-11-18T04:54:49.174Z,34.03
2023-11-18T04:57:15.923Z,32.67
2023-11-18T04:59:45.097Z,33.88
2023-11-18T05:02:11.728Z,33.05
2023-11-18T05:04:38.443Z,35.60
2023-11-18T05:07:05.512Z,33.33
2023-11-18T05:09:32.659Z,35.42
2023-11-18T05:12:00.319Z,36.80
2023-11-18T05:14:27.659Z,34.28
2023-11-18T05:16:54.723Z,37.75
2023-11-18T05:19:21.472Z,30.48
2023-11-18T05:21:50.888Z,33.70
2023-11-18T05:24:17.604Z,30.70
2023-11-18T05:26:44.121Z,29.30
2023-11-18T05:29:11.180Z,28.38
2023-11-18T05:31:38.401Z,31.63
2023-11-18T05:34:05.807Z,34.30
2023-11-18T05:36:38.214Z,32.13
2023-11-18T05:39:06.159Z,29.15
2023-11-18T05:41:33.257Z,29.60
2023-11-18T05:43:59.965Z,32.47
2023-11-18T05:46:30.700Z,35.83
2023-11-18T05:48:57.670Z,29.92
2023-11-18T05:51:29.962Z,34.33
2023-11-18T05:53:56.503Z,31.52
2023-11-18T05:56:26.374Z,30.13
2023-11-18T05:58:56.190Z,34.38
2023-11-18T06:01:23.331Z,32.05
2023-11-18T06:03:50.147Z,30.38
2023-11-18T06:06:21.181Z,32.63
2023-11-18T06:08:50.541Z,30.85
2023-11-18T06:11:17.723Z,31.98
2023-11-18T06:13:48.009Z,31.73
2023-11-18T06:16:15.622Z,29.90
2023-11-18T06:18:45.671Z,32.67
2023-11-18T06:21:16.583Z,32.35
2023-11-18T06:23:43.818Z,32.55
2023-11-18T06:26:12.966Z,33.15
2023-11-18T06:28:41.236Z,31.77
2023-11-18T06:31:12.646Z,34.15
2023-11-18T06:33:46.221Z,30.38
2023-11-18T06:36:15.897Z,33.42
2023-11-18T06:38:42.774Z,30.92
2023-11-18T06:41:12.091Z,33.58
2023-11-18T06:43:57.569Z,34.65
2023-11-18T06:46:35.140Z,35.50
2023-11-18T06:49:07.756Z,31.60
2023-11-18T06:51:39.538Z,35.30
2023-11-18T06:54:10.490Z,29.77
2023-11-18T06:56:38.956Z,35.42
2023-11-18T06:59:08.446Z,28.95
2023-11-18T07:01:36.745Z,29.75
2023-11-18T07:04:04.047Z,32.15
2023-11-18T07:06:30.595Z,35.35
2023-11-18T07:09:01.185Z,31.27
2023-11-18T07:11:28.597Z,33.28
2023-11-18T07:13:57.507Z,32.45
2023-11-18T07:16:25.320Z,30.73
2023-11-18T07:18:52.578Z,30.95
2023-11-18T07:21:19.754Z,30.67
2023-11-18T07:23:46.291Z,29.90
2023-11-18T07:26:14.842Z,32.63
2023-11-18T07:28:41.955Z,32.75
2023-11-18T07:31:09.142Z,33.80
2023-11-18T07:33:35.662Z,34.97
2023-11-18T07:36:06.808Z,30.05
2023-11-18T07:38:34.603Z,27.95
2023-11-18T07:41:03.707Z,27.17
2023-11-18T07:43:30.377Z,28.50
2023-11-18T07:45:56.868Z,32.40
2023-11-18T07:48:23.408Z,27.60
2023-11-18T07:50:49.887Z,31.02
2023-11-18T07:53:17.074Z,28.48
2023-11-18T07:55:43.606Z,28.92
2023-11-18T07:58:13.877Z,28.45
2023-11-18T08:03:14.485Z,29.83
2023-11-18T08:05:46.020Z,26.33
2023-11-18T08:08:13.391Z,28.67
2023-11-18T08:10:42.000Z,27.80
2023-11-18T08:13:09.177Z,25.60
2023-11-18T08:15:36.427Z,27.05
2023-11-18T08:18:04.080Z,26.63
2023-11-18T08:20:31.603Z,27.88
2023-11-18T08:22:58.138Z,28.10
2023-11-18T08:25:24.859Z,28.73
2023-11-18T08:27:51.327Z,24.13
2023-11-18T08:30:19.072Z,25.15
2023-11-18T08:32:46.895Z,24.95
2023-11-18T08:35:17.105Z,24.63
2023-11-18T08:37:44.593Z,24.95
2023-11-18T08:40:21.374Z,22.88
2023-11-18T08:42:51.308Z,24.30
2023-11-18T08:45:28.260Z,24.10
2023-11-18T08:47:54.832Z,22.73
2023-11-18T08:50:24.874Z,21.63
2023-11-18T08:53:00.715Z,21.05
2023-11-18T08:55:42.557Z,20.30
2023-11-18T08:58:22.941Z,23.42
2023-11-18T09:00:55.925Z,20.27
2023-11-18T09:03:35.359Z,21.85
2023-11-18T09:06:07.893Z,19.25
2023-11-18T09:08:43.714Z,17.63
2023-11-18T09:11:14.735Z,19.92
2023-11-18T09:13:43.747Z,20.08
2023-11-18T09:16:10.635Z,20.30
2023-11-18T09:18:46.052Z,21.48
2023-11-18T09:21:16.872Z,20.77
2023-11-18T09:23:44.313Z,16.13
2023-11-18T09:26:11.621Z,19.88
2023-11-18T09:28:39.039Z,18.75
2023-11-18T09:31:06.376Z,19.95
2023-11-18T09:33:34.651Z,20.63
2023-11-18T09:36:08.865Z,20.15
2023-11-18T09:38:37.035Z,18.52
2023-11-18T09:41:08.614Z,18.48
2023-11-18T09:43:43.499Z,17.65
2023-11-18T09:46:14.457Z,18.80
2023-11-18T09:49:16.192Z,21.77
2023-11-18T09:51:45.556Z,15.43
2023-11-18T09:54:30.447Z,17.60
2023-11-18T09:57:15.667Z,18.33
2023-11-18T09:59:56.516Z,17.58
2023-11-18T10:02:27.055Z,16.23
2023-11-18T10:04:58.794Z,16.23
2023-11-18T10:07:33.620Z,16.48
2023-11-18T10:10:00.327Z,17.48
2023-11-18T10:12:28.154Z,15.13
2023-11-18T10:14:55.371Z,18.77
2023-11-18T10:17:23.190Z,18.65
2023-11-18T10:20:00.789Z,16.02
2023-11-18T10:22:29.084Z,14.52
2023-11-18T10:24:56.878Z,14.30
2023-11-18T10:27:27.417Z,16.63
2023-11-18T10:30:19.918Z,15.02
2023-11-18T10:33:06.721Z,17.30
2023-11-18T10:35:34.309Z,16.27
2023-11-18T10:38:05.822Z,20.33
2023-11-18T10:40:38.534Z,15.35
2023-11-18T10:43:10.839Z,14.95
2023-11-18T10:45:42.948Z,15.10
2023-11-18T10:48:14.034Z,20.83
2023-11-18T10:50:40.619Z,14.55
2023-11-18T10:53:12.387Z,14.55
2023-11-18T10:55:39.478Z,18.55
2023-11-18T10:58:06.060Z,15.00
2023-11-18T11:00:52.949Z,17.00
2023-11-18T11:03:19.778Z,15.85
2023-11-18T11:05:46.719Z,16.20
2023-11-18T11:08:15.446Z,15.15
2023-11-18T11:10:44.916Z,17.13
2023-11-18T11:13:16.281Z,15.63
2023-11-18T11:15:51.968Z,14.55
2023-11-18T11:18:29.399Z,15.75
2023-11-18T11:21:08.616Z,16.88
2023-11-18T11:23:45.049Z,15.88
2023-11-18T11:26:24.115Z,18.10
2023-11-18T11:29:05.518Z,12.43
2023-11-18T11:31:37.712Z,16.10
2023-11-18T11:34:21.775Z,14.68
2023-11-18T11:36:52.147Z,14.68
2023-11-18T11:39:26.431Z,13.85
2023-11-18T11:41:57.500Z,16.25
2023-11-18T11:44:32.077Z,15.27
2023-11-18T11:47:01.953Z,12.55
2023-11-18T11:49:35.960Z,13.35
2023-11-18T11:52:05.666Z,10.75
2023-11-18T11:55:00.169Z,11.77
2023-11-18T11:57:31.325Z,14.50
2023-11-18T12:00:01.755Z,17.70
2023-11-18T12:02:33.632Z,12.73
2023-11-18T12:05:00.900Z,14.25
2023-11-18T12:07:33.056Z,12.05
2023-11-18T12:10:00.771Z,8.52
2023-11-18T12:12:28.241Z,10.32
2023-11-18T12:14:57.679Z,11.57
2023-11-18T12:17:26.865Z,14.40
2023-11-18T12:20:00.160Z,11.75
2023-11-18T12:22:34.473Z,9.25
2023-11-18T12:25:05.729Z,10.77
2023-11-18T12:27:53.684Z,11.20
2023-11-18T12:30:30.380Z,10.10
2023-11-18T12:33:11.075Z,9.23
2023-11-18T12:35:53.914Z,11.20
2023-11-18T12:38:35.425Z,7.50
2023-11-18T12:41:08.461Z,9.45
2023-11-18T12:43:52.823Z,8.40
2023-11-18T12:46:41.226Z,9.98
2023-11-18T12:49:08.426Z,10.38
2023-11-18T12:51:37.865Z,8.88
2023-11-18T12:54:08.077Z,9.85
2023-11-18T12:56:34.895Z,7.18
2023-11-18T12:59:01.404Z,9.57
2023-11-18T13:01:28.639Z,6.82
2023-11-18T13:03:55.364Z,8.43
2023-11-18T13:06:26.502Z,11.88
2023-11-18T13:08:53.031Z,7.30
2023-11-18T13:11:19.699Z,5.85
2023-11-18T13:13:46.904Z,5.43
2023-11-18T13:16:16.502Z,5.75
2023-11-18T13:18:50.314Z,6.38
2023-11-18T13:21:17.602Z,9.75
2023-11-18T13:23:56.634Z,6.50
2023-11-18T13:26:23.661Z,6.25
2023-11-18T13:28:50.663Z,5.55
2023-11-18T13:31:18.049Z,4.97
2023-11-18T13:33:45.216Z,4.80
2023-11-18T13:36:12.181Z,6.10
2023-11-18T13:38:39.061Z,6.43
2023-11-18T13:41:05.898Z,5.47
2023-11-18T13:43:51.135Z,5.68
2023-11-18T13:46:21.146Z,5.80
2023-11-18T13:51:18.625Z,5.47
2023-11-18T13:53:45.268Z,6.65
2023-11-18T13:56:13.479Z,5.55
2023-11-18T13:58:41.099Z,3.50
2023-11-18T14:01:11.899Z,5.60
2023-11-18T14:03:39.412Z,6.05
2023-11-18T14:06:13.523Z,4.75
2023-11-18T14:08:40.351Z,4.43
2023-11-18T14:11:15.120Z,4.80
2023-11-18T14:13:44.234Z,3.80
2023-11-18T14:16:11.546Z,3.78
2023-11-18T14:18:38.173Z,4.78
2023-11-18T14:21:06.842Z,5.18
2023-11-18T14:23:33.533Z,4.20
2023-11-18T14:26:00.079Z,5.03
2023-11-18T14:28:27.617Z,3.97
2023-11-18T14:30:54.154Z,4.35
2023-11-18T14:33:20.743Z,3.80
2023-11-18T14:35:47.440Z,2.35
2023-11-18T14:38:14.104Z,4.32
2023-11-18T14:40:42.675Z,2.50
2023-11-18T14:43:09.688Z,3.80
2023-11-18T14:45:36.208Z,3.28
2023-11-18T14:48:03.776Z,3.72
2023-11-18T14:50:31.183Z,3.88
2023-11-18T14:53:01.110Z,3.97
2023-11-18T14:55:28.572Z,3.83
2023-11-18T14:57:56.216Z,4.68
2023-11-18T15:00:25.842Z,3.53
2023-11-18T15:02:55.250Z,3.08
2023-11-18T15:05:23.701Z,5.85
2023-11-18T15:07:54.624Z,5.10
2023-11-18T15:10:28.728Z,5.13
2023-11-18T15:12:59.845Z,4.18
2023-11-18T15:15:33.449Z,3.30
2023-11-18T15:18:11.154Z,4.38
2023-11-18T15:20:38.212Z,4.03
2023-11-18T15:23:05.751Z,4.45
2023-11-18T15:25:32.398Z,7.68
2023-11-18T15:27:59.810Z,12.73
2023-11-18T15:30:26.708Z,11.13
2023-11-18T15:32:53.411Z,11.23
2023-11-18T15:35:22.167Z,7.18
2023-11-18T15:37:49.104Z,6.85
2023-11-18T15:40:20.294Z,6.07
2023-11-18T15:42:49.687Z,4.38
2023-11-18T15:45:21.713Z,6.63
2023-11-18T15:47:49.563Z,9.60
2023-11-18T15:50:18.094Z,4.10
2023-11-18T15:52:45.981Z,7.18
2023-11-18T15:55:15.178Z,9.27
2023-11-18T15:57:42.797Z,7.82
2023-11-18T16:00:17.657Z,3.85
2023-11-18T16:02:46.180Z,4.35
2023-11-18T16:05:17.005Z,5.00
2023-11-18T16:07:44.755Z,3.58
2023-11-18T16:10:12.346Z,2.78
2023-11-18T16:12:38.903Z,3.55
2023-11-18T16:15:07.074Z,3.15
2023-11-18T16:17:34.241Z,2.67
2023-11-18T16:20:00.965Z,4.07
2023-11-18T16:22:27.460Z,3.50
2023-11-18T16:24:53.905Z,3.42
2023-11-18T16:27:20.351Z,3.13
2023-11-18T16:29:46.844Z,4.28
2023-11-18T16:32:13.467Z,6.25
2023-11-18T16:34:39.991Z,3.63
2023-11-18T16:37:06.523Z,3.67
2023-11-18T16:39:33.867Z,3.88
2023-11-18T16:42:00.481Z,4.55
2023-11-18T16:44:27.106Z,5.35
2023-11-18T16:46:53.750Z,3.88
2023-11-18T16:49:20.299Z,5.72
2023-11-18T16:51:52.850Z,4.32
2023-11-18T16:54:33.300Z,4.68
2023-11-18T16:57:06.314Z,4.10
2023-11-18T16:59:32.740Z,4.45
2023-11-18T17:01:59.252Z,5.32
2023-11-18T17:04:25.919Z,7.68
2023-11-18T17:06:52.511Z,5.60
2023-11-18T17:09:18.984Z,6.22
2023-11-18T17:11:48.461Z,6.65
2023-11-18T17:14:16.064Z,6.70
2023-11-18T17:16:45.354Z,5.43
2023-11-18T17:19:12.832Z,4.53
2023-11-18T17:21:39.709Z,5.00
2023-11-18T17:24:06.750Z,5.90
2023-11-18T17:26:40.034Z,6.03
2023-11-18T17:29:07.496Z,6.53
2023-11-18T17:31:35.472Z,5.68
2023-11-18T17:34:02.826Z,4.82
2023-11-18T17:36:29.269Z,6.13
2023-11-18T17:38:56.094Z,6.15
2023-11-18T17:41:22.944Z,6.05
2023-11-18T17:43:50.423Z,5.53
2023-11-18T17:46:17.169Z,7.05
2023-11-18T17:48:43.795Z,7.32
2023-11-18T17:51:10.303Z,7.60
2023-11-18T17:53:37.190Z,9.65
2023-11-18T17:56:06.483Z,11.50
2023-11-18T17:58:33.413Z,13.35
2023-11-18T18:01:02.390Z,16.38
2023-11-18T18:03:29.432Z,10.43
2023-11-18T18:05:56.025Z,12.20
2023-11-18T18:08:22.490Z,12.73
2023-11-18T18:10:49.686Z,13.57
2023-11-18T18:13:16.504Z,17.25
2023-11-18T18:15:43.161Z,15.27
2023-11-18T18:18:10.413Z,19.50
2023-11-18T18:20:37.028Z,16.42
2023-11-18T18:23:04.585Z,21.60
2023-11-18T18:25:31.082Z,21.88
2023-11-18T18:27:57.543Z,25.38
2023-11-18T18:30:24.020Z,20.30
2023-11-18T18:32:51.073Z,24.60
2023-11-18T18:35:18.115Z,35.10
2023-11-18T18:37:44.744Z,27.02
2023-11-18T18:40:13.029Z,38.38
2023-11-18T18:42:41.555Z,26.83
2023-11-18T18:45:09.128Z,28.08
2023-11-18T18:47:36.182Z,25.48
2023-11-18T18:50:02.802Z,28.02
2023-11-18T18:52:29.504Z,28.77
2023-11-18T18:54:56.117Z,28.17
2023-11-18T18:57:22.837Z,32.63
2023-11-18T18:59:49.511Z,27.85
2023-11-18T19:02:16.895Z,29.75
2023-11-18T19:04:43.562Z,31.80
2023-11-18T19:07:11.116Z,40.22
2023-11-18T19:09:37.629Z,35.13
2023-11-18T19:12:04.839Z,32.05
2023-11-18T19:14:31.361Z,30.00
2023-11-18T19:16:58.457Z,42.60
2023-11-18T19:19:25.035Z,33.17
2023-11-18T19:21:52.279Z,32.85
2023-11-18T19:24:20.082Z,32.30
2023-11-18T19:26:48.229Z,31.45
2023-11-18T19:29:14.752Z,33.70
2023-11-18T19:31:41.223Z,31.92
2023-11-18T19:34:07.769Z,33.70
2023-11-18T19:36:34.469Z,34.42
2023-11-18T19:39:00.956Z,23.10
2023-11-18T19:41:27.694Z,40.28
2023-11-18T19:43:54.321Z,33.33
2023-11-18T19:46:22.243Z,33.45
2023-11-18T19:48:48.819Z,41.38
2023-11-18T19:51:15.353Z,29.00
2023-11-18T19:53:42.223Z,32.58
2023-11-18T19:56:10.623Z,39.75
2023-11-18T19:58:37.278Z,41.17
2023-11-18T20:01:03.869Z,33.45
2023-11-18T20:03:30.742Z,36.08
2023-11-18T20:05:57.490Z,39.47
2023-11-18T20:08:24.202Z,38.42
2023-11-18T20:10:50.660Z,34.30
2023-11-18T20:13:17.168Z,41.50
2023-11-18T20:15:43.705Z,37.30
2023-11-18T20:18:12.832Z,32.97
2023-11-18T20:20:39.589Z,32.58
2023-11-18T20:23:06.309Z,31.35
2023-11-18T20:25:33.044Z,33.88
2023-11-18T20:27:59.548Z,33.83
2023-11-18T20:30:26.119Z,32.58
2023-11-18T20:32:53.028Z,33.85
2023-11-18T20:35:20.090Z,25.98
2023-11-18T20:37:48.711Z,30.42
2023-11-18T20:40:17.642Z,31.65
2023-11-18T20:42:44.292Z,32.00
2023-11-18T20:45:14.936Z,23.75
2023-11-18T20:47:41.796Z,34.58
2023-11-18T20:50:08.865Z,26.63
2023-11-18T20:52:35.362Z,24.38
2023-11-18T20:55:04.669Z,26.08
2023-11-18T20:57:31.159Z,28.42
2023-11-18T20:59:58.083Z,27.30
2023-11-18T21:02:24.660Z,25.30
2023-11-18T21:04:51.485Z,25.17
2023-11-18T21:07:18.222Z,27.95
2023-11-18T21:09:44.674Z,19.17
2023-11-18T21:12:18.172Z,21.88
2023-11-18T21:14:49.327Z,20.77
2023-11-18T21:17:16.124Z,22.45
2023-11-18T21:19:43.137Z,27.73
2023-11-18T21:22:09.831Z,23.98
2023-11-18T21:24:36.294Z,23.55
2023-11-18T21:27:02.791Z,27.05
2023-11-18T21:29:29.358Z,28.33
2023-11-18T21:31:55.861Z,24.65
2023-11-18T21:34:22.301Z,23.20
2023-11-18T21:36:48.803Z,31.52
2023-11-18T21:39:19.018Z,23.58
2023-11-18T21:41:45.545Z,24.17
2023-11-18T21:44:12.047Z,19.45
2023-11-18T21:46:38.600Z,19.33
2023-11-18T21:49:10.627Z,23.23
2023-11-18T21:51:37.860Z,23.85
2023-11-18T21:54:04.716Z,31.88
2023-11-18T21:56:34.605Z,22.13
2023-11-18T22:01:27.942Z,21.73
2023-11-18T22:03:54.477Z,21.38
2023-11-18T22:06:23.693Z,22.10
2023-11-18T22:08:50.360Z,20.73
2023-11-18T22:11:20.127Z,22.70
2023-11-18T22:16:16.427Z,22.77
2023-11-18T22:18:42.983Z,18.92
2023-11-18T22:21:09.490Z,23.00
2023-11-18T22:23:38.617Z,17.38
2023-11-18T22:26:06.094Z,20.30
2023-11-18T22:28:33.298Z,13.90
2023-11-18T22:31:00.276Z,18.85
2023-11-18T22:33:27.196Z,17.60
2023-11-18T22:35:55.016Z,20.65
2023-11-18T22:38:25.336Z,16.98
2023-11-18T22:40:52.167Z,17.92
2023-11-18T22:43:20.461Z,19.48
2023-11-18T22:45:49.856Z,19.85
2023-11-18T22:48:16.446Z,20.65
2023-11-18T22:50:43.013Z,20.08
2023-11-18T22:53:10.636Z,19.20
2023-11-18T22:55:39.470Z,21.55
2023-11-18T22:58:06.141Z,20.73
2023-11-18T23:00:51.506Z,17.25
2023-11-18T23:03:19.125Z,22.00
2023-11-18T23:05:45.959Z,21.35
2023-11-18T23:08:17.853Z,21.75
2023-11-18T23:10:45.429Z,21.23
2023-11-18T23:13:12.798Z,16.17
2023-11-18T23:15:41.009Z,17.13
2023-11-18T23:18:08.482Z,19.10
2023-11-18T23:20:37.942Z,15.05
2023-11-18T23:23:04.742Z,15.93
2023-11-18T23:25:31.288Z,13.20
2023-11-18T23:28:02.427Z,18.80
2023-11-18T23:30:30.669Z,12.35
2023-11-18T23:32:57.623Z,14.75
2023-11-18T23:35:24.225Z,17.25
2023-11-18T23:37:52.421Z,14.68
2023-11-18T23:40:20.582Z,13.98
2023-11-18T23:42:48.664Z,13.63
2023-11-18T23:45:15.691Z,13.48
2023-11-18T23:47:43.688Z,21.60
2023-11-18T23:50:14.423Z,17.10
2023-11-18T23:52:40.958Z,8.63
2023-11-18T23:55:13.565Z,10.77
2023-11-18T23:57:41.659Z,15.40
